Time;durP1;ratioP1;P1;durP2;ratioP2;P2;SDS_P1;SDS_P2;PMS_P1;PMS_P2;Temp;Humidity;BMP_temperature;BMP_pressure;BME280_temperature;BME280_humidity;BME280_pressure;Samples;Min_cycle;Max_cycle;Signal;HPM_P1;HPM_P2
2022/01/08 00:01:23;;;;;;;11.75;6.13;;;;;;;3.95;90.76;100922.06;4996943;28;20073;-50
2022/01/08 00:03:51;;;;;;;13.05;5.97;;;;;;;3.94;91.09;100930.34;4995437;28;20050;-50
2022/01/08 00:06:20;;;;;;;10.80;5.90;;;;;;;3.94;90.83;100925.78;4996818;28;20493;-50
2022/01/08 00:08:49;;;;;;;11.98;5.57;;;;;;;3.97;91.19;100932.59;4995972;28;20064;-47
2022/01/08 00:11:24;;;;;;;11.68;5.28;;;;;;;3.97;90.51;100936.16;5013076;28;20042;-53
2022/01/08 00:13:52;;;;;;;11.05;5.28;;;;;;;3.99;90.68;100938.59;5013902;28;20570;-50
2022/01/08 00:16:20;;;;;;;13.25;5.45;;;;;;;3.98;91.07;100940.47;5013545;28;20377;-47
2022/01/08 00:18:47;;;;;;;10.25;5.30;;;;;;;3.96;90.03;100939.88;5014953;28;20100;-48
2022/01/08 00:21:15;;;;;;;13.13;5.95;;;;;;;3.94;90.45;100936.56;5012234;28;20052;-48
2022/01/08 00:23:42;;;;;;;10.63;5.78;;;;;;;3.93;90.49;100939.50;5013501;28;20045;-48
2022/01/08 00:26:10;;;;;;;11.27;5.30;;;;;;;3.91;90.22;100939.72;5013535;28;20054;-47
2022/01/08 00:28:38;;;;;;;12.50;5.68;;;;;;;3.90;90.37;100940.78;5014924;28;20065;-47
2022/01/08 00:31:09;;;;;;;12.50;5.35;;;;;;;3.88;89.92;100945.56;5012994;28;20049;-47
2022/01/08 00:33:38;;;;;;;11.40;5.60;;;;;;;3.87;90.81;100953.84;5014902;28;20073;-48
2022/01/08 00:36:06;;;;;;;12.38;5.72;;;;;;;3.86;90.03;100952.22;4997658;28;20053;-52
2022/01/08 00:38:34;;;;;;;11.02;5.72;;;;;;;3.84;90.26;100947.84;5013028;28;20133;-44
2022/01/08 00:41:02;;;;;;;10.88;5.20;;;;;;;3.82;90.45;100947.28;5002107;28;20041;-46
2022/01/08 00:43:30;;;;;;;12.20;6.25;;;;;;;3.82;90.36;100949.13;4995020;28;20061;-48
2022/01/08 00:46:00;;;;;;;12.65;5.28;;;;;;;3.81;90.60;100951.00;4978050;28;20050;-48
2022/01/08 00:48:27;;;;;;;9.10;4.88;;;;;;;3.83;89.75;100953.47;4996249;28;20050;-47
2022/01/08 00:50:55;;;;;;;11.65;5.32;;;;;;;3.82;90.00;100960.75;4996006;28;20031;-48
2022/01/08 00:53:24;;;;;;;10.30;5.43;;;;;;;3.81;89.60;100964.47;4993532;28;20045;-48
2022/01/08 00:55:53;;;;;;;13.65;5.95;;;;;;;3.80;89.72;100962.81;4993204;28;20089;-48
2022/01/08 00:58:21;;;;;;;11.25;5.65;;;;;;;3.78;89.29;100969.47;4995855;28;20523;-47
2022/01/08 01:00:48;;;;;;;11.80;5.40;;;;;;;3.75;89.37;100969.91;4995150;28;20493;-45
2022/01/08 01:03:16;;;;;;;10.07;5.50;;;;;;;3.74;89.52;100971.78;4994321;28;20038;-49
2022/01/08 01:05:44;;;;;;;11.10;5.15;;;;;;;3.71;89.96;100977.63;4993398;28;20137;-44
2022/01/08 01:08:11;;;;;;;13.02;5.55;;;;;;;3.70;89.62;100981.34;4994456;28;20049;-48
2022/01/08 01:10:39;;;;;;;12.75;6.28;;;;;;;3.67;90.00;100976.38;5001197;28;20042;-46
2022/01/08 01:13:07;;;;;;;10.75;5.13;;;;;;;3.67;90.05;100971.00;5012828;28;20046;-48
2022/01/08 01:15:34;;;;;;;10.93;5.30;;;;;;;3.66;90.03;100982.84;5013088;28;20057;-50
2022/01/08 01:18:02;;;;;;;11.18;5.07;;;;;;;3.67;90.25;100972.88;5013967;28;20448;-49
2022/01/08 01:20:30;;;;;;;11.63;5.25;;;;;;;3.68;89.79;100966.44;5010418;28;20088;-53
2022/01/08 01:23:04;;;;;;;12.90;5.47;;;;;;;3.67;89.33;100972.88;5012914;28;20065;-48
2022/01/08 01:25:37;;;;;;;10.32;5.30;;;;;;;3.69;89.57;100970.78;5013815;28;20053;-47
2022/01/08 01:41:50;;;;;;;11.23;5.15;;;;;;;3.66;89.39;100977.44;5011011;28;20367;-49
2022/01/08 01:47:01;;;;;;;10.43;5.10;;;;;;;3.63;89.09;100983.25;4993064;28;20050;-49
2022/01/08 01:49:34;;;;;;;11.60;5.47;;;;;;;3.61;88.64;100979.97;4996216;28;20121;-48
2022/01/08 01:52:03;;;;;;;11.68;5.10;;;;;;;3.58;88.95;100985.78;4992924;28;20050;-50
2022/01/08 01:54:31;;;;;;;11.27;5.20;;;;;;;3.58;89.57;100988.47;4993613;28;20398;-48
2022/01/08 01:57:00;;;;;;;10.07;5.28;;;;;;;3.56;89.25;100980.63;4993864;28;20042;-48
2022/01/08 01:59:29;;;;;;;12.90;5.20;;;;;;;3.57;89.57;100984.13;4994685;28;20421;-49
2022/01/08 02:01:57;;;;;;;12.45;5.60;;;;;;;3.58;89.55;100985.78;4992593;28;20053;-48
2022/01/08 02:04:25;;;;;;;11.32;5.78;;;;;;;3.58;89.05;100972.31;5002476;28;20042;-50
2022/01/08 02:06:53;;;;;;;9.55;5.05;;;;;;;3.57;88.90;100976.06;5011392;28;20064;-51
2022/01/08 02:09:20;;;;;;;11.80;5.45;;;;;;;3.56;89.17;100977.06;5013342;28;20049;-48
2022/01/08 02:12:02;;;;;;;12.02;5.43;;;;;;;3.54;89.39;100968.41;5011677;28;20042;-48
2022/01/08 02:14:35;;;;;;;11.30;5.95;;;;;;;3.54;88.92;100965.72;5008608;28;20042;-50
2022/01/08 02:17:07;;;;;;;11.98;5.38;;;;;;;3.53;88.49;100974.81;5012191;28;20463;-49
2022/01/08 02:19:37;;;;;;;13.93;5.93;;;;;;;3.50;88.92;100968.00;5013218;28;20057;-49
2022/01/08 02:22:05;;;;;;;11.63;5.50;;;;;;;3.49;89.14;100968.22;5000588;28;20042;-49
2022/01/08 02:24:33;;;;;;;10.95;5.43;;;;;;;3.47;89.29;100967.63;4994393;28;20520;-48
2022/01/08 02:27:01;;;;;;;10.75;5.35;;;;;;;3.45;88.89;100969.72;4992221;28;20425;-44
2022/01/08 02:29:28;;;;;;;12.63;5.68;;;;;;;3.44;88.51;100973.44;4994238;28;20501;-45
2022/01/08 02:31:59;;;;;;;14.02;5.88;;;;;;;3.41;89.46;100970.13;4993323;28;20042;-48
2022/01/08 02:34:27;;;;;;;11.27;5.85;;;;;;;3.41;88.82;100967.44;5012275;28;20077;-49
2022/01/08 02:36:55;;;;;;;12.18;5.55;;;;;;;3.40;89.02;100979.25;5012783;28;20053;-45
2022/01/08 02:39:24;;;;;;;12.35;5.93;;;;;;;3.39;89.15;100974.09;5011331;28;20046;-45
2022/01/08 02:41:57;;;;;;;12.75;6.35;;;;;;;3.37;89.54;100971.63;5012845;28;20488;-45
2022/01/08 02:44:25;;;;;;;14.00;5.82;;;;;;;3.35;89.57;100976.41;5011032;28;20092;-46
2022/01/08 02:46:52;;;;;;;12.93;5.45;;;;;;;3.35;89.14;100976.41;5012897;28;20042;-43
2022/01/08 02:49:21;;;;;;;13.85;5.78;;;;;;;3.35;89.74;100987.16;5010967;28;20519;-44
2022/01/08 02:51:49;;;;;;;12.07;5.85;;;;;;;3.37;89.12;100990.47;4993329;28;20515;-50
2022/01/08 02:54:17;;;;;;;12.77;6.10;;;;;;;3.37;88.99;100995.88;4999811;28;20120;-52
2022/01/08 02:56:47;;;;;;;11.63;5.93;;;;;;;3.36;89.62;100994.19;5012359;28;20041;-47
2022/01/08 02:59:14;;;;;;;11.93;6.07;;;;;;;3.37;89.17;100989.66;5011186;28;20052;-43
2022/01/08 03:01:42;;;;;;;11.27;5.90;;;;;;;3.36;89.74;100994.19;5010835;28;20050;-45
2022/01/08 03:04:10;;;;;;;10.57;5.95;;;;;;;3.36;89.18;100988.00;5011167;28;20065;-45
2022/01/08 03:06:38;;;;;;;13.00;5.93;;;;;;;3.35;89.05;100995.25;4993151;28;20049;-45
2022/01/08 03:09:06;;;;;;;14.20;6.55;;;;;;;3.33;89.09;100994.63;4994118;28;20042;-45
2022/01/08 03:11:34;;;;;;;13.20;6.63;;;;;;;3.33;89.03;100999.19;4993073;28;20050;-46
2022/01/08 03:14:02;;;;;;;12.10;6.10;;;;;;;3.31;89.62;100990.50;4996463;28;20057;-44
2022/01/08 03:16:29;;;;;;;12.77;6.70;;;;;;;3.29;89.53;100988.03;5010723;28;20050;-47
2022/01/08 03:18:57;;;;;;;13.57;6.45;;;;;;;3.29;89.60;100988.03;5016052;28;20042;-47
2022/01/08 03:21:25;;;;;;;13.18;6.50;;;;;;;3.28;89.87;100986.38;5014624;28;20072;-45
2022/01/08 03:24:00;;;;;;;13.95;7.13;;;;;;;3.28;89.37;101002.53;5016032;28;20042;-48
2022/01/08 03:26:28;;;;;;;12.97;6.63;;;;;;;3.29;89.77;100990.72;5012915;28;20441;-55
2022/01/08 03:28:57;;;;;;;16.02;6.95;;;;;;;3.28;89.47;100991.75;5014571;28;20192;-49
2022/01/08 03:31:25;;;;;;;14.60;7.00;;;;;;;3.28;89.66;100986.38;4996591;28;20042;-49
2022/01/08 03:33:54;;;;;;;12.57;7.07;;;;;;;3.27;89.81;100990.13;4996563;28;20039;-50
2022/01/08 03:36:23;;;;;;;13.20;6.57;;;;;;;3.25;89.14;100991.34;4999178;28;20045;-50
2022/01/08 03:38:52;;;;;;;16.20;7.28;;;;;;;3.22;89.80;100992.63;5015998;28;20484;-47
2022/01/08 03:41:20;;;;;;;12.38;6.60;;;;;;;3.22;89.95;101007.94;5013972;28;20399;-49
2022/01/08 03:43:48;;;;;;;12.48;6.63;;;;;;;3.19;90.04;101001.94;5016087;28;20046;-46
2022/01/08 03:46:19;;;;;;;13.23;6.85;;;;;;;3.20;89.97;101000.94;5015980;28;20042;-50
2022/01/08 03:49:10;;;;;;;17.15;7.32;;;;;;;3.20;89.42;101006.31;5014277;28;20057;-50
2022/01/08 03:51:35;;;;;;;14.25;7.05;;;;;;;3.19;89.38;101009.22;5014202;28;20100;-49
2022/01/08 03:54:03;;;;;;;11.90;6.93;;;;;;;3.18;89.33;101007.56;5015578;28;20419;-49
2022/01/08 03:56:30;;;;;;;14.80;6.80;;;;;;;3.17;89.69;101006.72;5008161;28;20042;-43
2022/01/08 03:58:58;;;;;;;13.95;7.03;;;;;;;3.17;89.84;101008.59;4996289;28;20057;-44
2022/01/08 04:01:25;;;;;;;13.25;7.00;;;;;;;3.17;89.63;101006.72;4997006;28;20093;-48
2022/01/08 04:03:53;;;;;;;13.57;6.63;;;;;;;3.16;89.88;100998.88;4995625;28;20544;-46
2022/01/08 04:06:21;;;;;;;15.25;6.57;;;;;;;3.16;89.10;101006.94;4995924;28;20137;-47
2022/01/08 04:08:56;;;;;;;13.85;6.70;;;;;;;3.14;89.70;101006.34;5014640;28;20050;-45
2022/01/08 04:11:24;;;;;;;15.27;7.50;;;;;;;3.13;89.63;101000.13;5013860;28;20042;-47
2022/01/08 04:13:54;;;;;;;16.80;7.15;;;;;;;3.12;89.67;101003.84;4996269;28;20054;-50
2022/01/08 04:16:30;;;;;;;14.00;6.57;;;;;;;3.11;89.49;101007.59;4995511;28;20500;-48
2022/01/08 04:18:59;;;;;;;14.55;7.45;;;;;;;3.12;89.52;101011.09;5010628;28;20060;-48
2022/01/08 04:24:01;;;;;;;16.17;7.75;;;;;;;3.08;89.15;101020.63;5013240;28;20492;-48
2022/01/08 04:26:29;;;;;;;12.98;7.07;;;;;;;3.08;89.18;101026.03;5015365;28;20037;-51
2022/01/08 04:28:56;;;;;;;15.00;6.80;;;;;;;3.08;89.92;101020.63;5004155;28;20081;-48
2022/01/08 04:31:25;;;;;;;18.77;7.47;;;;;;;3.10;89.16;101032.03;4995441;28;20056;-50
2022/01/08 04:33:53;;;;;;;13.60;6.85;;;;;;;3.09;89.69;101030.38;4996523;28;20042;-50
2022/01/08 04:36:21;;;;;;;17.30;7.13;;;;;;;3.09;89.52;101033.06;4995482;28;20030;-49
2022/01/08 04:38:49;;;;;;;13.30;7.30;;;;;;;3.07;88.86;101030.59;4998475;28;20042;-47
2022/01/08 04:41:16;;;;;;;14.13;6.72;;;;;;;3.07;89.35;101035.16;5014703;28;20089;-49
2022/01/08 04:43:44;;;;;;;12.75;6.65;;;;;;;3.05;89.16;101034.53;5013170;28;20050;-48
2022/01/08 04:46:12;;;;;;;12.65;6.72;;;;;;;3.05;89.47;101034.53;5014525;28;20555;-49
2022/01/08 04:48:40;;;;;;;14.38;6.60;;;;;;;3.04;89.75;101027.50;5014728;28;20042;-47
2022/01/08 04:51:08;;;;;;;14.48;6.68;;;;;;;3.02;90.00;101024.19;4998634;28;20042;-49
2022/01/08 04:53:35;;;;;;;14.57;6.75;;;;;;;3.01;89.67;101036.00;4995783;28;20046;-47
2022/01/08 04:56:04;;;;;;;13.90;6.85;;;;;;;3.02;90.21;101034.97;4994592;28;20050;-53
2022/01/08 04:58:32;;;;;;;15.52;7.05;;;;;;;3.01;90.17;101039.53;4993813;28;20042;-48
2022/01/08 05:01:00;;;;;;;16.05;6.13;;;;;;;3.02;89.60;101034.97;4994699;28;20121;-46
2022/01/08 05:03:27;;;;;;;14.07;6.45;;;;;;;2.98;90.00;101032.72;4995560;28;20041;-47
2022/01/08 05:05:55;;;;;;;14.32;6.10;;;;;;;2.98;90.58;101034.53;4994716;28;20053;-51
2022/01/08 05:08:23;;;;;;;14.05;6.72;;;;;;;2.97;90.22;101041.81;4994832;28;20042;-46
2022/01/08 05:10:50;;;;;;;14.00;5.93;;;;;;;2.96;90.01;101045.53;4998570;28;20531;-49
2022/01/08 05:13:18;;;;;;;16.02;6.70;;;;;;;2.95;90.43;101049.25;5014235;28;20056;-48
2022/01/08 05:15:45;;;;;;;11.60;5.47;;;;;;;2.93;90.69;101043.25;5012601;28;20041;-47
2022/01/08 05:18:13;;;;;;;12.98;5.93;;;;;;;2.93;90.97;101042.44;5013593;28;20046;-48
2022/01/08 05:20:45;;;;;;;14.98;6.25;;;;;;;2.91;90.87;101045.34;5003450;28;20050;-49
2022/01/08 05:23:15;;;;;;;14.38;5.57;;;;;;;2.90;90.41;101043.69;4994454;28;20058;-49
2022/01/08 05:25:42;;;;;;;12.82;5.95;;;;;;;2.89;91.04;101049.31;4995163;28;20048;-49
2022/01/08 05:28:10;;;;;;;16.02;5.90;;;;;;;2.89;91.24;101042.06;4993906;28;20054;-44
2022/01/08 05:30:37;;;;;;;13.32;5.45;;;;;;;2.89;91.31;101047.44;4998042;28;20416;-49
2022/01/08 05:33:05;;;;;;;13.02;5.90;;;;;;;2.89;90.97;101035.84;5013894;28;20115;-48
2022/01/08 05:35:33;;;;;;;13.18;5.60;;;;;;;2.87;91.31;101040.63;5012190;28;20088;-46
2022/01/08 05:38:00;;;;;;;12.18;5.43;;;;;;;2.87;91.16;101049.50;5013605;28;20504;-48
2022/01/08 05:40:28;;;;;;;13.15;5.55;;;;;;;2.87;91.68;101049.50;5002904;28;20042;-48
2022/01/08 05:42:56;;;;;;;15.10;5.90;;;;;;;2.86;91.48;101047.88;4993765;28;20466;-50
2022/01/08 05:45:23;;;;;;;15.27;5.93;;;;;;;2.84;91.66;101044.56;4993698;28;20076;-50
2022/01/08 05:47:51;;;;;;;12.68;5.68;;;;;;;2.84;91.85;101041.88;5011505;28;20046;-49
2022/01/08 05:50:18;;;;;;;15.00;5.63;;;;;;;2.87;91.91;101037.91;5009406;28;20069;-48
2022/01/08 05:52:48;;;;;;;11.82;4.82;;;;;;;2.90;92.66;101043.69;4994036;28;20049;-45
2022/01/08 05:55:17;;;;;;;15.32;5.47;;;;;;;2.88;92.26;101051.13;4993411;28;20046;-51
2022/01/08 05:57:45;;;;;;;13.77;5.63;;;;;;;2.90;91.61;101059.84;4994943;28;20145;-51
2022/01/08 06:00:13;;;;;;;11.43;5.10;;;;;;;2.88;91.98;101061.91;5016903;28;20080;-52
2022/01/08 06:02:40;;;;;;;12.60;5.03;;;;;;;2.88;92.10;101061.91;4995429;28;20416;-47
2022/01/08 06:05:09;;;;;;;14.05;4.80;;;;;;;2.90;92.08;101069.78;4993469;28;20046;-50
2022/01/08 06:07:36;;;;;;;13.15;5.53;;;;;;;2.90;91.78;101075.97;4994768;28;20049;-48
2022/01/08 06:10:05;;;;;;;15.63;5.93;;;;;;;2.89;92.21;101079.72;4992258;28;20445;-45
2022/01/08 06:12:32;;;;;;;14.20;5.47;;;;;;;2.87;92.00;101084.50;5003147;28;20092;-49
2022/01/08 06:15:00;;;;;;;11.50;4.80;;;;;;;2.86;92.37;101080.16;5013366;28;20389;-49
2022/01/08 06:17:28;;;;;;;13.27;5.60;;;;;;;2.86;91.53;101079.31;5011210;28;20468;-46
2022/01/08 06:19:55;;;;;;;13.45;5.50;;;;;;;2.85;91.95;101080.34;5012804;28;20509;-50
2022/01/08 06:22:23;;;;;;;12.07;5.60;;;;;;;2.85;91.74;101075.78;5010910;28;20049;-48
2022/01/08 06:24:50;;;;;;;13.70;5.30;;;;;;;2.85;92.05;101081.19;5012781;28;20092;-49
2022/01/08 06:27:18;;;;;;;13.23;4.32;;;;;;;2.85;92.13;101081.19;5011452;28;20054;-51
2022/01/08 06:29:46;;;;;;;15.02;5.57;;;;;;;2.87;92.02;101081.78;5012929;28;20757;-48
2022/01/08 06:32:14;;;;;;;12.90;5.07;;;;;;;2.87;92.23;101084.50;5011581;28;20053;-47
2022/01/08 06:34:42;;;;;;;14.18;5.55;;;;;;;2.87;91.91;101086.34;5012781;28;20050;-48
2022/01/08 06:37:10;;;;;;;11.13;4.97;;;;;;;2.89;92.10;101082.41;5001361;28;20076;-49
2022/01/08 06:39:38;;;;;;;9.73;4.80;;;;;;;2.91;91.92;101077.66;4993085;28;20581;-49
2022/01/08 06:42:06;;;;;;;11.43;5.43;;;;;;;2.89;92.07;101078.91;4998570;28;20060;-46
2022/01/08 06:44:33;;;;;;;12.80;5.38;;;;;;;2.88;92.51;101077.22;5012705;28;20052;-45
2022/01/08 06:47:01;;;;;;;13.68;5.10;;;;;;;2.88;92.67;101069.97;5008809;28;20046;-49
2022/01/08 06:49:29;;;;;;;11.77;5.07;;;;;;;2.83;92.73;101069.78;4993401;28;20053;-48
2022/01/08 06:51:56;;;;;;;13.30;5.70;;;;;;;2.85;93.15;101066.91;4994610;28;20046;-49
2022/01/08 06:54:24;;;;;;;12.00;4.93;;;;;;;2.85;92.97;101064.22;4998379;28;20074;-52
2022/01/08 06:56:51;;;;;;;9.68;4.88;;;;;;;2.86;92.84;101064.00;4997860;28;20474;-48
2022/01/08 06:59:19;;;;;;;10.88;4.75;;;;;;;2.87;92.52;101064.81;5012214;28;20046;-51
2022/01/08 07:01:46;;;;;;;11.60;4.82;;;;;;;2.88;92.93;101072.66;4997143;28;20065;-49
2022/01/08 07:04:14;;;;;;;10.52;4.38;;;;;;;2.88;92.40;101061.91;4998975;28;20070;-46
2022/01/08 07:06:42;;;;;;;11.77;3.97;;;;;;;2.95;94.35;101062.72;4996532;28;20043;-51
2022/01/08 07:09:09;;;;;;;12.63;5.40;;;;;;;2.94;93.17;101066.47;4996898;28;20050;-49
2022/01/08 07:11:37;;;;;;;12.65;5.20;;;;;;;2.90;92.94;101056.31;4997079;28;20057;-49
2022/01/08 07:14:04;;;;;;;16.02;5.20;;;;;;;2.80;93.10;101064.03;5003024;28;20069;-49
2022/01/08 07:16:32;;;;;;;13.77;5.60;;;;;;;2.76;93.46;101077.03;5014722;28;20042;-48
2022/01/08 07:19:00;;;;;;;12.90;4.97;;;;;;;2.75;93.12;101073.53;5016160;28;20042;-47
2022/01/08 07:21:27;;;;;;;13.98;4.95;;;;;;;2.74;93.56;101071.03;5015510;28;20042;-48
2022/01/08 07:23:56;;;;;;;11.88;5.07;;;;;;;2.73;93.70;101070.22;5003138;28;20125;-49
2022/01/08 07:26:23;;;;;;;9.95;4.47;;;;;;;2.74;93.75;101069.22;4997665;28;20080;-49
2022/01/08 07:28:51;;;;;;;9.77;4.35;;;;;;;2.80;93.48;101069.41;4996361;28;20062;-50
2022/01/08 07:31:19;;;;;;;11.38;4.45;;;;;;;2.84;93.59;101076.00;4996632;28;20046;-51
2022/01/08 07:33:49;;;;;;;11.15;4.78;;;;;;;2.91;94.78;101071.41;5001215;28;20046;-47
2022/01/08 07:36:17;;;;;;;10.80;4.07;;;;;;;2.90;94.25;101070.59;5014188;28;20080;-49
2022/01/08 07:38:46;;;;;;;11.75;4.80;;;;;;;2.90;93.69;101064.41;5016197;28;20380;-49
2022/01/08 07:41:14;;;;;;;6.60;3.15;;;;;;;3.01;97.35;101065.59;5016170;28;20042;-50
2022/01/08 07:43:41;;;;;;;11.02;4.32;;;;;;;2.94;94.42;101069.16;5014095;28;20049;-54
2022/01/08 07:46:09;;;;;;;12.60;4.80;;;;;;;2.91;94.05;101072.28;5014616;28;20396;-54
2022/01/08 07:48:37;;;;;;;11.55;4.57;;;;;;;2.89;94.01;101066.28;5015984;28;20416;-49
2022/01/08 07:51:04;;;;;;;8.57;3.53;;;;;;;2.96;96.94;101072.47;5010877;28;20041;-50
2022/01/08 07:53:32;;;;;;;9.60;3.67;;;;;;;3.01;97.93;101070.97;4995506;28;20042;-51
2022/01/08 07:55:59;;;;;;;9.25;3.58;;;;;;;3.07;98.42;101059.38;4989961;28;20043;-46
2022/01/08 07:58:27;;;;;;;8.68;3.85;;;;;;;3.12;100.00;101064.94;4995482;28;20513;-49
2022/01/08 08:00:55;;;;;;;10.10;3.70;;;;;;;3.15;100.00;101068.06;4996033;28;20042;-50
2022/01/08 08:03:23;;;;;;;10.90;4.05;;;;;;;3.19;100.00;101060.38;4995424;28;20390;-47
2022/01/08 08:05:51;;;;;;;8.35;3.15;;;;;;;3.20;100.00;101057.47;4998536;28;20069;-50
2022/01/08 08:08:20;;;;;;;8.07;3.97;;;;;;;3.46;100.00;101060.25;4998297;28;20053;-48
2022/01/08 08:10:50;;;;;;;11.93;4.97;;;;;;;3.36;100.00;101052.63;5004187;28;20038;-50
2022/01/08 08:13:19;;;;;;;7.85;3.17;;;;;;;3.33;100.00;101053.06;4995361;28;20500;-50
2022/01/08 08:15:47;;;;;;;9.88;4.40;;;;;;;3.34;100.00;101054.69;4995447;28;20061;-49
2022/01/08 08:18:15;;;;;;;13.68;4.90;;;;;;;3.23;100.00;101053.53;4995091;28;20038;-52
2022/01/08 08:20:43;;;;;;;9.30;4.00;;;;;;;3.36;100.00;101053.44;5002615;28;20506;-53
2022/01/08 08:23:10;;;;;;;12.05;4.32;;;;;;;3.24;100.00;101060.53;5012397;28;20038;-50
2022/01/08 08:25:38;;;;;;;10.60;4.53;;;;;;;3.12;100.00;101049.63;5008586;28;20041;-49
2022/01/08 08:28:06;;;;;;;13.57;5.78;;;;;;;3.06;100.00;101053.16;4994623;28;20121;-51
2022/01/08 08:30:34;;;;;;;11.30;5.38;;;;;;;3.01;99.17;101041.38;4993791;28;20045;-47
2022/01/08 08:33:02;;;;;;;17.80;5.80;;;;;;;3.02;100.00;101040.34;4994831;28;20042;-50
2022/01/08 08:35:31;;;;;;;32.10;8.57;;;;;;;3.04;100.00;101043.66;4995817;28;20064;-50
2022/01/08 08:37:59;;;;;;;15.00;5.93;;;;;;;3.02;99.64;101041.16;4995088;28;20039;-49
2022/01/08 08:40:26;;;;;;;15.90;5.68;;;;;;;2.95;97.28;101033.09;4994784;28;20042;-54
2022/01/08 08:42:54;;;;;;;10.52;4.95;;;;;;;2.90;97.28;101030.22;5012773;28;20044;-54
2022/01/08 08:45:22;;;;;;;11.27;5.13;;;;;;;2.88;97.34;101026.94;5014135;28;20045;-54
2022/01/08 08:47:50;;;;;;;13.02;5.47;;;;;;;2.86;97.19;101031.72;5014549;28;20049;-48
2022/01/08 08:50:18;;;;;;;18.08;6.30;;;;;;;3.00;99.96;101029.78;5014439;28;20061;-50
2022/01/08 08:52:46;;;;;;;23.27;7.03;;;;;;;3.19;100.00;101030.75;5014442;28;20124;-52
2022/01/08 08:55:14;;;;;;;27.15;7.70;;;;;;;3.52;100.00;101033.28;5014347;28;20050;-52
2022/01/08 08:57:42;;;;;;;26.40;7.47;;;;;;;3.50;100.00;101031.84;5013973;28;20042;-49
2022/01/08 09:00:11;;;;;;;19.05;6.50;;;;;;;3.55;100.00;101034.72;5013872;28;20092;-52
2022/01/08 09:02:38;;;;;;;22.48;6.95;;;;;;;3.71;100.00;101028.81;5013061;28;20061;-47
2022/01/08 09:05:07;;;;;;;20.02;6.13;;;;;;;3.68;100.00;101023.88;5012970;28;20068;-50
2022/01/08 09:07:35;;;;;;;16.80;5.93;;;;;;;3.67;100.00;101024.06;5013972;28;20054;-46
2022/01/08 09:10:06;;;;;;;17.90;6.15;;;;;;;4.04;100.00;101016.94;5014428;28;20052;-49
2022/01/08 09:12:34;;;;;;;17.90;5.50;;;;;;;3.96;100.00;101019.91;5014240;28;20042;-48
2022/01/08 09:15:01;;;;;;;17.90;6.20;;;;;;;3.93;100.00;101015.78;5011358;28;20050;-51
2022/01/08 09:17:29;;;;;;;16.52;6.00;;;;;;;4.06;100.00;101009.47;5014103;28;20408;-50
2022/01/08 09:19:57;;;;;;;17.67;5.55;;;;;;;3.92;100.00;101021.41;5013901;28;20042;-50
2022/01/08 09:22:25;;;;;;;15.10;6.20;;;;;;;4.01;100.00;101017.38;4996174;28;20531;-48
2022/01/08 09:24:54;;;;;;;18.48;5.03;;;;;;;3.89;100.00;101011.88;5012475;28;20052;-50
2022/01/08 09:27:22;;;;;;;16.88;5.22;;;;;;;3.92;100.00;101016.00;5012809;28;20424;-48
2022/01/08 09:29:50;;;;;;;17.40;6.28;;;;;;;4.03;100.00;101004.53;5014070;28;20038;-50
2022/01/08 09:32:18;;;;;;;15.18;5.65;;;;;;;4.15;100.00;101004.63;5013339;28;20049;-46
2022/01/08 09:34:46;;;;;;;15.77;5.70;;;;;;;4.12;100.00;101008.59;5012714;28;20058;-47
2022/01/08 09:37:14;;;;;;;18.35;6.47;;;;;;;3.96;100.00;101014.53;5012445;28;20050;-48
2022/01/08 09:39:41;;;;;;;17.38;6.10;;;;;;;4.09;100.00;101003.66;5013630;28;20125;-49
2022/01/08 09:42:10;;;;;;;18.52;6.95;;;;;;;4.00;100.00;100999.56;5013205;28;20042;-47
2022/01/08 09:44:39;;;;;;;15.15;5.15;;;;;;;4.08;100.00;100985.81;5013510;28;20137;-48
2022/01/08 09:47:07;;;;;;;19.48;6.03;;;;;;;4.21;100.00;100974.91;5005494;28;20057;-48
2022/01/08 09:49:34;;;;;;;14.45;5.85;;;;;;;3.98;100.00;100970.13;5017534;28;20452;-48
2022/01/08 09:52:03;;;;;;;13.82;6.10;;;;;;;4.01;100.00;100964.28;5001008;28;20042;-49
2022/01/08 09:54:31;;;;;;;15.32;6.15;;;;;;;4.15;100.00;100969.56;4999612;28;20056;-49
2022/01/08 09:56:59;;;;;;;15.27;5.80;;;;;;;4.32;100.00;100956.34;4997177;28;21466;-49
2022/01/08 09:59:28;;;;;;;11.80;4.53;;;;;;;4.24;100.00;100952.88;5003543;28;20413;-47
2022/01/08 10:01:59;;;;;;;12.80;5.00;;;;;;;4.53;100.00;100947.81;4998397;28;20400;-51
2022/01/08 10:04:29;;;;;;;14.23;5.75;;;;;;;4.41;100.00;100942.34;4996853;28;20038;-50
2022/01/08 10:07:23;;;;;;;13.93;5.90;;;;;;;4.75;100.00;100931.16;4992721;28;20528;-51
2022/01/08 10:10:12;;;;;;;12.77;6.13;;;;;;;4.58;100.00;100920.16;5003108;28;20062;-49
2022/01/08 10:12:48;;;;;;;13.20;4.75;;;;;;;4.65;100.00;100916.31;4993464;28;20061;-50
2022/01/08 10:18:27;;;;;;;13.35;6.60;;;;;;;4.74;100.00;100907.91;4994153;28;20134;-48
2022/01/08 10:20:56;;;;;;;11.10;4.40;;;;;;;4.61;100.00;100900.81;4999622;28;20046;-49
2022/01/08 10:23:28;;;;;;;12.93;4.60;;;;;;;4.64;100.00;100897.66;5006539;28;20042;-52
2022/01/08 10:25:56;;;;;;;13.27;5.28;;;;;;;4.91;100.00;100887.34;5006591;28;20047;-49
2022/01/08 10:28:51;;;;;;;13.80;8.52;;;;;;;4.77;100.00;100870.50;4997502;28;20066;-54
2022/01/08 10:31:22;;;;;;;16.27;9.03;;;;;;;4.12;100.00;100870.25;5000537;28;20049;-50
2022/01/08 10:34:08;;;;;;;20.52;9.35;;;;;;;3.81;100.00;100864.75;5013064;28;20046;-55
2022/01/08 10:36:37;;;;;;;17.05;9.63;;;;;;;3.53;100.00;100856.31;5011640;28;20140;-51
2022/01/08 10:39:28;;;;;;;16.05;8.18;;;;;;;3.57;100.00;100852.13;4995254;28;20070;-51
2022/01/08 10:41:57;;;;;;;17.33;10.23;;;;;;;3.59;100.00;100847.34;4992348;28;20054;-53
2022/01/08 10:44:32;;;;;;;16.58;10.77;;;;;;;3.70;100.00;100843.91;4993092;28;20053;-48
2022/01/08 10:47:06;;;;;;;19.00;10.50;;;;;;;3.61;100.00;100840.69;4991973;28;20551;-50
2022/01/08 10:50:02;;;;;;;13.98;8.65;;;;;;;3.70;100.00;100832.31;4992513;28;20125;-54
2022/01/08 10:52:41;;;;;;;19.73;9.45;;;;;;;3.72;100.00;100824.84;4992214;28;20039;-48
2022/01/08 10:55:09;;;;;;;18.88;9.10;;;;;;;3.63;100.00;100810.81;4992917;28;20045;-55
2022/01/08 10:57:39;;;;;;;17.33;9.57;;;;;;;3.63;100.00;100811.66;4996636;28;20050;-47
2022/01/08 11:00:12;;;;;;;20.52;9.13;;;;;;;3.69;100.00;100804.56;4996233;28;20039;-54
2022/01/08 11:02:41;;;;;;;17.42;9.65;;;;;;;3.61;100.00;100802.16;5002985;28;20475;-52
2022/01/08 11:05:10;;;;;;;20.58;8.57;;;;;;;3.61;100.00;100788.69;4993069;28;20121;-50
2022/01/08 11:07:42;;;;;;;20.40;7.55;;;;;;;3.78;100.00;100787.06;4992918;28;20054;-51
2022/01/08 11:10:16;;;;;;;17.95;9.30;;;;;;;3.94;100.00;100779.41;4992694;28;20129;-47
2022/01/08 11:12:46;;;;;;;17.40;9.10;;;;;;;3.76;100.00;100772.97;4992643;28;20042;-48
2022/01/08 11:17:54;;;;;;;21.55;8.63;;;;;;;3.94;100.00;100765.94;4992853;28;20049;-47
2022/01/08 11:20:45;;;;;;;17.38;9.50;;;;;;;3.87;100.00;100768.69;4992722;28;20050;-49
2022/01/08 11:23:15;;;;;;;17.17;7.55;;;;;;;3.93;100.00;100761.59;4993575;28;20034;-53
2022/01/08 11:25:45;;;;;;;37.35;18.23;;;;;;;3.93;100.00;100750.81;4991555;28;20057;-51
2022/01/08 11:28:17;;;;;;;75.80;49.22;;;;;;;4.02;100.00;100744.06;4994488;28;20054;-53
2022/01/08 11:30:47;;;;;;;104.90;70.75;;;;;;;4.01;100.00;100742.41;5007821;28;20045;-53
2022/01/08 11:33:20;;;;;;;38.13;25.23;;;;;;;3.98;100.00;100730.22;5004284;28;20062;-50
2022/01/08 11:35:49;;;;;;;28.05;16.88;;;;;;;3.93;100.00;100734.66;4995594;28;20562;-49
2022/01/08 11:38:21;;;;;;;275.17;181.23;;;;;;;4.45;100.00;100710.72;5006688;28;20044;-50
2022/01/08 11:40:51;;;;;;;205.05;138.40;;;;;;;4.55;100.00;100716.38;5000313;28;20512;-48
2022/01/08 11:43:20;;;;;;;163.75;107.00;;;;;;;4.64;100.00;100711.44;4999749;28;20048;-51
2022/01/08 11:45:57;;;;;;;284.13;187.15;;;;;;;5.05;100.00;100705.19;4996178;28;20046;-54
2022/01/08 11:48:44;;;;;;;189.52;132.10;;;;;;;5.05;100.00;100694.38;5011197;28;20042;-51
2022/01/08 11:51:16;;;;;;;34.60;19.70;;;;;;;4.52;100.00;100692.53;5013252;28;20046;-52
2022/01/08 11:53:52;;;;;;;17.58;9.48;;;;;;;4.31;100.00;100677.72;4995819;28;20479;-51
2022/01/08 11:56:39;;;;;;;14.50;8.50;;;;;;;4.06;100.00;100667.06;5005411;28;20157;-48